Hualapai Flat, Nevada Weather observations

Data are for 10 minute period ending at time listed.
 Day   Time   Solar   Ave.   Ave.  Ave.  Vector  Max.   Baro.   Total    
  of    of     Rad.   Air    Rel.  Wind   Wind   Wind  Press.  Precip.   
Year   Day            Temp.  Hum.  Speed  Dir.   Gust                    
2017   (PST)  Kw/m2    F      %     mph   deg.    mph    mb.     in.     
-------------------------------------------------------------------------
 142   15:30   0.37   80.8    10    3.7   100     9.0   879.0    0.00 
 142   15:40   0.60   80.9    10    6.8    77    11.5   878.9    0.00 
 142   15:50   0.57   81.7     9    3.5   191     8.2   878.9    0.00 
 142   16:00   0.52   82.3     9    4.0   197     8.5   878.6    0.00 
 142   16:10   0.38   83.6    10    4.4   205     7.0   878.6    0.00 
 142   16:20   0.49   84.4     9    2.8   207     6.0   878.6    0.00 
 142   16:30   0.39   84.4    10    3.7   172     7.1   878.5    0.00 
 142   16:40   0.39   82.8    10    2.9   265     9.0   878.5    0.00 
 142   16:50   0.39   83.2    10    1.2   305     3.0   878.4    0.00 
 142   17:00   0.29   82.2    11    4.7   127     7.3   878.3    0.00 
 142   17:10   0.35   82.6    10    4.3   177     7.8   878.2    0.00 
 142   17:20   0.30   82.5    10    4.0   102     8.9   878.2    0.00 
 142   17:30   0.27   81.7    11    4.1   144     7.9   878.1    0.00 
 142   17:40   0.22   82.8    11    3.4   176     6.6   878.1    0.00 
 142   17:50   0.18   81.6    11    3.6    94     5.4   878.1    0.00 
 142   18:00   0.18   79.7    12    4.9   111     9.6   878.1    0.00 
 142   18:10   0.14   79.2    12    4.3   106     7.5   878.1    0.00 
 142   18:20   0.12   78.4    13    3.5    90     6.1   878.1    0.00 
 142   18:30   0.09   77.3    13    4.2    96     6.3   878.1    0.00 
 142   18:40   0.07   76.7    13    3.2    80     4.7   878.1    0.00 
 142   18:50   0.04   76.9    14    0.9    96     2.7   878.2    0.00 
 142   19:00   0.01   75.1    14    2.5   204     3.8   878.2    0.00 
 142   19:10   0.01   72.5    17    2.8   217     3.5   878.2    0.00 
 142   19:20   0.01   71.5    17    4.4   257     7.6   878.3    0.00 
 142   19:30   0.00   65.0    26    7.3   294     8.0   878.4    0.00 
 142   19:40   0.00   64.1    25    7.3   292     8.4   878.6    0.00 
 142   19:50   0.00   63.8    25    7.7   294     9.0   878.6    0.00 
 142   20:00   0.00   63.3    24    7.8   290     9.1   878.7    0.00 
 142   20:10   0.00   62.7    25    8.1   294     9.4   878.8    0.00 
 142   20:20   0.00   62.0    26    8.3   297     9.6   878.9    0.00 
 142   20:30   0.00   61.9    25    8.8   298    10.4   878.9    0.00 
 142   20:40   0.00   62.7    24    8.6   298    10.6   878.9    0.00 
 142   20:50   0.00   62.9    24    8.1   313    11.1   879.0    0.00 
 142   21:00   0.00   62.8    25    7.3   323    11.7   879.0    0.00 
 142   21:10   0.00   61.4    25    7.2   316     8.7   879.0    0.00 
 142   21:20   0.00   63.4    23    7.6   310     9.7   879.0    0.00 
 142   21:30   0.00   62.2    24    6.4   315     8.8   879.1    0.00 
 142   21:40   0.00   58.4    30    6.1   343     7.7   879.1    0.00 
 142   21:50   0.00   55.5    34    5.4   333     7.7   879.0    0.00 
 142   22:00   0.00   56.8    31    7.6   315     9.2   879.0    0.00 
 142   22:10   0.00   59.8    27    7.5   310     8.9   879.0    0.00 
 142   22:20   0.00   58.6    28    8.1   305     9.5   879.1    0.00 
 142   22:30   0.00   58.4    28    8.4   308     9.6   879.2    0.00 
 142   22:40   0.00   59.6    26    8.8   309    10.5   879.2    0.00 
 142   22:50   0.00   59.6    26    8.9   307    10.3   879.2    0.00 
 142   23:00   0.00   59.2    26    9.2   306    10.7   879.3    0.00 
 142   23:10   0.00   58.8    27    8.5   307     9.7   879.3    0.00 
 142   23:20   0.00   58.5    28    7.6   306     9.3   879.4    0.00 
 142   23:30   0.00   57.7    28    8.1   305     9.3   879.4    0.00 
 142   23:40   0.00   58.2    28    7.9   309     9.3   879.4    0.00 
 142   23:50   0.00   57.3    29    5.7   324     9.1   879.4    0.00 
 143    0:00   0.00   54.0    34    6.3   337     7.8   879.4    0.00 
 143    0:10   0.00   53.8    34    4.7   324     6.7   879.4    0.00 
 143    0:20   0.00   51.8    38    4.2   338     7.0   879.3    0.00 
 143    0:30   0.00   51.7    38    6.6   324     7.9   879.3    0.00 
 143    0:40   0.00   56.5    30    5.6   312     6.6   879.3    0.00 
 143    0:50   0.00   56.3    30    6.9   306     8.1   879.3    0.00 
 143    1:00   0.00   54.5    32    6.9   302     7.9   879.3    0.00 
 143    1:10   0.00   54.2    33    7.6   302     8.8   879.3    0.00 
 143    1:20   0.00   52.8    34    7.2   292     9.0   879.3    0.00 
 143    1:30   0.00   52.0    35    7.9   298     9.2   879.3    0.00 
 143    1:40   0.00   52.3    35    7.8   298     8.6   879.2    0.00 
 143    1:50   0.00   52.2    35    5.3   318     8.0   879.3    0.00 
 143    2:00   0.00   52.6    34    1.6   190     3.7   879.3    0.00 
 143    2:10   0.00   50.0    37    0.7    23     3.0   879.3    0.00 
 143    2:20   0.00   51.5    35    2.6   266     3.7   879.2    0.00 
 143    2:30   0.00   50.8    36    3.5   269     5.8   879.2    0.00 
 143    2:40   0.00   47.6    42    4.3   287     5.6   879.2    0.00 
 143    2:50   0.00   48.1    42    4.6   319     6.1   879.2    0.00 
 143    3:00   0.00   49.6    40    5.2   325     6.2   879.1    0.00 
 143    3:10   0.00   51.5    37    3.6   330     5.5   879.0    0.00 
 143    3:20   0.00   50.5    38    4.5   300     6.4   879.0    0.00 
 143    3:30   0.00   48.0    42    5.7   303     6.9   878.9    0.00 
 143    3:40   0.00   47.3    44    2.6   318     6.0   878.9    0.00 
 143    3:50   0.00   47.3    44    2.7   306     4.4   878.9    0.00 
 143    4:00   0.00   47.8    43    4.6   308     6.1   879.0    0.00 
 143    4:10   0.00   49.4    41    4.6   328     5.2   879.0    0.00 
 143    4:20   0.00   49.9    40    4.7   327     5.4   879.0    0.00 
 143    4:30   0.00   49.6    41    5.0   320     5.8   879.0    0.00 
 143    4:40   0.00   46.9    44    4.5   306     5.3   879.0    0.00 
 143    4:50   0.01   46.9    44    3.6   308     5.3   879.0    0.00 
 143    5:00   0.04   48.8    42    3.3   325     4.6   879.1    0.00 
 143    5:10   0.07   49.1    44    2.9   351     4.6   879.2    0.00 
 143    5:20   0.09   48.7    48    4.1   348     6.1   879.2    0.00 
 143    5:30   0.05   50.5    47    4.5   342     6.1   879.3    0.00 
 143    5:40   0.11   53.5    42    5.0   334     6.2   879.3    0.00 
 143    5:50   0.13   56.2    37    4.8   311     6.4   879.4    0.00 
 143    6:00   0.22   58.4    34    3.6   323     4.9   879.5    0.00 
 143    6:10   0.26   60.4    31    4.2   321     5.9   879.7    0.00 
 143    6:20   0.29   62.0    31    2.8   309     4.8   879.8    0.00 
 143    6:30   0.33   64.2    29    2.4   304     3.4   879.9    0.00 
 143    6:40   0.36   67.0    26    1.8   325     3.3   880.0    0.00 
 143    6:50   0.40   68.9    23    2.0   338     3.4   880.0    0.00 
 143    7:00   0.41   70.5    23    1.6    20     2.9   880.0    0.00 
 143    7:10   0.46   71.7    20    1.3    44     3.1   880.0    0.00 
 143    7:20   0.49   72.5    19    1.7    75     3.6   880.0    0.00 
 143    7:30   0.52   72.5    22    4.3   134     6.9   880.0    0.00 
 143    7:40   0.55   70.9    25    6.0   134     8.3   879.9    0.00 
 143    7:50   0.58   69.6    26    7.0   132     9.0   880.0    0.00 
 143    8:00   0.61   69.9    26    6.3   126     8.6   880.0    0.00 
 143    8:10   0.64   70.3    25    6.5   132     8.3   880.1    0.00 
 143    8:20   0.67   71.2    24    6.4   130     9.3   880.0    0.00 
 143    8:30   0.70   72.4    22    6.3   138     8.3   879.9    0.00 
 143    8:40   0.72   73.3    20    5.9   137     8.6   879.8    0.00 
 143    8:50   0.69   74.2    19    5.4   135     9.5   879.7    0.00 
 143    9:00   0.73   75.7    17    4.8   138     7.8   879.6    0.00 
 143    9:10   0.80   76.0    17    4.6   129     7.5   879.5    0.00 
 143    9:20   0.80   76.2    18    5.3   125     8.7   879.4    0.00 
 143    9:30   0.82   76.6    19    5.5   122     9.4   879.2    0.00 
 143    9:40   0.88   77.2    18    5.4   118     8.7   879.1    0.00 
 143    9:50   0.88   78.2    18    4.9   142     9.3   879.0    0.00 
 143   10:00   0.80   79.2    16    4.1   139     7.7   878.9    0.00 
 143   10:10   0.84   79.5    17    4.4   123     8.7   878.8    0.00 
 143   10:20   0.94   80.2    16    5.7   123     9.2   878.6    0.00 
 143   10:30   0.95   80.9    16    6.0   130    10.3   878.5    0.00 
 143   10:40   0.96   81.7    16    6.3   136    10.2   878.4    0.00 
 143   10:50   0.96   84.0    14    6.7   151    11.2   878.3    0.00 
 143   11:00   0.97   84.7    14    7.1   164    10.5   878.2    0.00 
 143   11:10   0.97   85.2    14    8.0   150    13.4   878.0    0.00 
 143   11:20   0.98   85.2    14    8.8   144    13.5   878.0    0.00 
 143   11:30   0.97   85.4    14    8.4   154    13.7   877.9    0.00 
 143   11:40   0.99   85.8    13    8.7   135    13.6   877.8    0.00 
 143   11:50   0.99   85.1    13    7.1   135    12.7   877.7    0.00 
 143   12:00   0.85   85.9    13    7.5   151    13.9   877.6    0.00 
 143   12:10   0.90   86.2    13    9.0   141    17.2   877.4    0.00 
 143   12:20   0.82   87.1    13    8.3   161    15.3   877.3    0.00 
 143   12:30   0.95   88.3    12    9.0   158    13.2   877.2    0.00 
 143   12:40   0.95   86.7    12    8.0   146    14.5   877.1    0.00 
 143   12:50   0.94   88.2    12    4.9   142    10.5   877.0    0.00 
 143   13:00   0.16   87.6    12    8.0   140    13.0   877.0    0.00 
 143   13:10   0.87   86.6    12   10.3   126    17.0   876.8    0.00 
 143   13:20   0.92   87.9    12    8.3   157    12.3   876.6    0.00 
 143   13:30   0.90   89.7    11    9.7   218    18.5   876.6    0.00 
 143   13:40   0.49   89.4    11    4.2   196    17.6   876.6    0.00 
 143   13:50   0.61   90.2    11   10.0   229    17.0   876.5    0.00 
 143   14:00   0.85   89.1    11    8.2   222    17.5   876.5    0.00 
 143   14:10   0.83   90.9    11    6.7   182    12.3   876.4    0.00 
 143   14:20   0.81   90.1    11    8.8   224    19.0   876.3    0.00 
 143   14:30   0.78   90.2    11    5.5   217    12.4   876.2    0.00 
 143   14:40   0.76   90.3    11    6.0   270    16.7   876.2    0.00 
 143   14:50   0.67   89.0    11    3.3   262     9.1   876.0    0.00 
 143   15:00   0.63   89.9    10    7.0   247    13.9   875.9    0.00 
 143   15:10   0.68   89.2    11    5.1   179    14.1   875.7    0.00 
 143   15:20   0.65   90.7    11    7.9   242    15.4   875.6    0.00 

Return to Hualapai Flat graphs page.


Western Regional Climate Center,wrcc@dri.edu